sensor_id;sensor_type;location;lat;lon;timestamp;P1;durP1;ratioP1;P2;durP2;ratioP2
35366;SDS011;21465;52.278;20.962;2023-08-30T00:00:47;21.58;;;19.88;;
35366;SDS011;21465;52.278;20.962;2023-08-30T00:03:33;19.30;;;17.80;;
35366;SDS011;21465;52.278;20.962;2023-08-30T00:06:02;21.17;;;19.67;;
35366;SDS011;21465;52.278;20.962;2023-08-30T00:08:29;23.73;;;21.85;;
35366;SDS011;21465;52.278;20.962;2023-08-30T00:10:55;21.05;;;19.45;;
35366;SDS011;21465;52.278;20.962;2023-08-30T00:13:26;21.38;;;19.73;;
35366;SDS011;21465;52.278;20.962;2023-08-30T00:15:56;21.05;;;19.45;;
35366;SDS011;21465;52.278;20.962;2023-08-30T00:18:22;20.85;;;19.25;;
35366;SDS011;21465;52.278;20.962;2023-08-30T00:20:49;18.88;;;17.48;;
35366;SDS011;21465;52.278;20.962;2023-08-30T00:23:14;23.38;;;21.58;;
35366;SDS011;21465;52.278;20.962;2023-08-30T00:25:42;22.38;;;20.58;;
35366;SDS011;21465;52.278;20.962;2023-08-30T00:28:07;20.50;;;18.88;;
35366;SDS011;21465;52.278;20.962;2023-08-30T00:30:33;20.35;;;18.85;;
35366;SDS011;21465;52.278;20.962;2023-08-30T00:32:59;22.25;;;20.58;;
35366;SDS011;21465;52.278;20.962;2023-08-30T00:35:25;21.10;;;19.50;;
35366;SDS011;21465;52.278;20.962;2023-08-30T00:37:50;19.42;;;17.83;;
35366;SDS011;21465;52.278;20.962;2023-08-30T00:40:22;23.15;;;21.35;;
35366;SDS011;21465;52.278;20.962;2023-08-30T00:42:49;20.10;;;18.33;;
35366;SDS011;21465;52.278;20.962;2023-08-30T00:45:15;21.02;;;19.33;;
35366;SDS011;21465;52.278;20.962;2023-08-30T00:47:40;21.33;;;19.52;;
35366;SDS011;21465;52.278;20.962;2023-08-30T00:50:06;25.40;;;23.40;;
35366;SDS011;21465;52.278;20.962;2023-08-30T00:52:33;24.08;;;22.17;;
35366;SDS011;21465;52.278;20.962;2023-08-30T00:55:00;25.08;;;23.00;;
35366;SDS011;21465;52.278;20.962;2023-08-30T00:57:25;25.05;;;22.88;;
35366;SDS011;21465;52.278;20.962;2023-08-30T00:59:51;22.98;;;21.27;;
35366;SDS011;21465;52.278;20.962;2023-08-30T01:02:18;24.20;;;22.30;;
35366;SDS011;21465;52.278;20.962;2023-08-30T01:04:44;23.48;;;21.67;;
35366;SDS011;21465;52.278;20.962;2023-08-30T01:07:11;20.20;;;18.50;;
35366;SDS011;21465;52.278;20.962;2023-08-30T01:09:37;19.90;;;18.30;;
35366;SDS011;21465;52.278;20.962;2023-08-30T01:12:13;21.80;;;20.20;;
35366;SDS011;21465;52.278;20.962;2023-08-30T01:14:44;18.23;;;16.92;;
35366;SDS011;21465;52.278;20.962;2023-08-30T01:17:11;17.60;;;16.35;;
35366;SDS011;21465;52.278;20.962;2023-08-30T01:27:42;13.43;;;12.40;;
35366;SDS011;21465;52.278;20.962;2023-08-30T01:30:09;14.57;;;13.50;;
35366;SDS011;21465;52.278;20.962;2023-08-30T01:32:36;13.48;;;12.43;;
35366;SDS011;21465;52.278;20.962;2023-08-30T01:35:03;13.85;;;12.75;;
35366;SDS011;21465;52.278;20.962;2023-08-30T01:37:30;13.63;;;12.63;;
35366;SDS011;21465;52.278;20.962;2023-08-30T01:39:56;12.63;;;11.70;;
35366;SDS011;21465;52.278;20.962;2023-08-30T01:42:24;11.70;;;10.88;;
35366;SDS011;21465;52.278;20.962;2023-08-30T01:44:51;12.50;;;11.60;;
35366;SDS011;21465;52.278;20.962;2023-08-30T01:47:17;12.25;;;11.40;;
35366;SDS011;21465;52.278;20.962;2023-08-30T01:49:43;12.25;;;11.45;;
35366;SDS011;21465;52.278;20.962;2023-08-30T01:52:10;11.88;;;10.98;;
35366;SDS011;21465;52.278;20.962;2023-08-30T01:54:36;12.77;;;11.88;;
35366;SDS011;21465;52.278;20.962;2023-08-30T01:57:03;11.30;;;10.50;;
35366;SDS011;21465;52.278;20.962;2023-08-30T01:59:29;11.68;;;10.88;;
35366;SDS011;21465;52.278;20.962;2023-08-30T02:01:55;12.85;;;11.93;;
35366;SDS011;21465;52.278;20.962;2023-08-30T02:04:22;11.85;;;10.95;;
35366;SDS011;21465;52.278;20.962;2023-08-30T02:09:36;12.77;;;11.82;;
35366;SDS011;21465;52.278;20.962;2023-08-30T02:12:15;12.10;;;11.20;;
35366;SDS011;21465;52.278;20.962;2023-08-30T02:14:44;11.63;;;10.82;;
35366;SDS011;21465;52.278;20.962;2023-08-30T02:17:13;12.35;;;11.45;;
35366;SDS011;21465;52.278;20.962;2023-08-30T02:19:40;11.57;;;10.77;;
35366;SDS011;21465;52.278;20.962;2023-08-30T02:22:07;13.25;;;12.23;;
35366;SDS011;21465;52.278;20.962;2023-08-30T02:24:33;14.18;;;13.02;;
35366;SDS011;21465;52.278;20.962;2023-08-30T02:26:59;13.65;;;12.65;;
35366;SDS011;21465;52.278;20.962;2023-08-30T02:29:25;13.70;;;12.60;;
35366;SDS011;21465;52.278;20.962;2023-08-30T02:31:51;13.85;;;12.80;;
35366;SDS011;21465;52.278;20.962;2023-08-30T02:34:18;14.20;;;13.07;;
35366;SDS011;21465;52.278;20.962;2023-08-30T02:36:43;13.20;;;12.18;;
35366;SDS011;21465;52.278;20.962;2023-08-30T02:39:10;13.10;;;12.10;;
35366;SDS011;21465;52.278;20.962;2023-08-30T02:41:36;14.40;;;13.25;;
35366;SDS011;21465;52.278;20.962;2023-08-30T02:44:03;13.38;;;12.38;;
35366;SDS011;21465;52.278;20.962;2023-08-30T02:46:28;14.68;;;13.57;;
35366;SDS011;21465;52.278;20.962;2023-08-30T02:48:54;15.32;;;14.02;;
35366;SDS011;21465;52.278;20.962;2023-08-30T02:51:20;16.13;;;14.82;;
35366;SDS011;21465;52.278;20.962;2023-08-30T02:53:46;15.75;;;14.55;;
35366;SDS011;21465;52.278;20.962;2023-08-30T02:56:12;16.67;;;15.13;;
35366;SDS011;21465;52.278;20.962;2023-08-30T02:58:37;15.55;;;14.25;;
35366;SDS011;21465;52.278;20.962;2023-08-30T03:01:03;15.02;;;13.82;;
35366;SDS011;21465;52.278;20.962;2023-08-30T03:03:29;16.23;;;14.90;;
35366;SDS011;21465;52.278;20.962;2023-08-30T03:05:54;15.70;;;14.40;;
35366;SDS011;21465;52.278;20.962;2023-08-30T03:08:20;16.85;;;15.45;;
35366;SDS011;21465;52.278;20.962;2023-08-30T03:10:46;16.48;;;15.07;;
35366;SDS011;21465;52.278;20.962;2023-08-30T03:13:12;16.60;;;15.20;;
35366;SDS011;21465;52.278;20.962;2023-08-30T03:15:37;16.98;;;15.50;;
35366;SDS011;21465;52.278;20.962;2023-08-30T03:18:03;16.02;;;14.55;;
35366;SDS011;21465;52.278;20.962;2023-08-30T03:20:29;17.33;;;15.82;;
35366;SDS011;21465;52.278;20.962;2023-08-30T03:22:58;17.63;;;16.13;;
35366;SDS011;21465;52.278;20.962;2023-08-30T03:25:24;18.45;;;16.92;;
35366;SDS011;21465;52.278;20.962;2023-08-30T03:27:50;17.90;;;16.40;;
35366;SDS011;21465;52.278;20.962;2023-08-30T03:30:17;18.17;;;16.38;;
35366;SDS011;21465;52.278;20.962;2023-08-30T03:32:43;17.10;;;15.70;;
35366;SDS011;21465;52.278;20.962;2023-08-30T03:35:09;17.38;;;15.77;;
35366;SDS011;21465;52.278;20.962;2023-08-30T03:37:35;17.05;;;15.65;;
35366;SDS011;21465;52.278;20.962;2023-08-30T03:40:00;16.58;;;15.10;;
35366;SDS011;21465;52.278;20.962;2023-08-30T03:42:26;18.85;;;17.25;;
35366;SDS011;21465;52.278;20.962;2023-08-30T03:44:52;17.50;;;16.00;;
35366;SDS011;21465;52.278;20.962;2023-08-30T03:47:18;17.00;;;15.50;;
35366;SDS011;21465;52.278;20.962;2023-08-30T03:49:44;17.63;;;16.02;;
35366;SDS011;21465;52.278;20.962;2023-08-30T03:52:10;17.17;;;15.75;;
35366;SDS011;21465;52.278;20.962;2023-08-30T03:54:35;18.17;;;16.58;;
35366;SDS011;21465;52.278;20.962;2023-08-30T03:57:01;17.65;;;16.05;;
35366;SDS011;21465;52.278;20.962;2023-08-30T03:59:28;17.48;;;16.02;;
35366;SDS011;21465;52.278;20.962;2023-08-30T04:01:54;18.55;;;16.85;;
35366;SDS011;21465;52.278;20.962;2023-08-30T04:04:19;17.80;;;16.25;;
35366;SDS011;21465;52.278;20.962;2023-08-30T04:06:45;18.35;;;16.65;;
35366;SDS011;21465;52.278;20.962;2023-08-30T04:09:11;17.17;;;15.57;;
35366;SDS011;21465;52.278;20.962;2023-08-30T04:11:37;17.60;;;16.00;;
35366;SDS011;21465;52.278;20.962;2023-08-30T04:14:02;16.35;;;14.95;;
35366;SDS011;21465;52.278;20.962;2023-08-30T04:16:28;17.80;;;16.20;;
35366;SDS011;21465;52.278;20.962;2023-08-30T04:18:54;16.65;;;15.15;;
35366;SDS011;21465;52.278;20.962;2023-08-30T04:21:20;16.58;;;15.18;;
35366;SDS011;21465;52.278;20.962;2023-08-30T04:23:46;16.15;;;14.75;;
35366;SDS011;21465;52.278;20.962;2023-08-30T04:26:11;15.05;;;13.85;;
35366;SDS011;21465;52.278;20.962;2023-08-30T04:28:37;15.35;;;14.07;;
35366;SDS011;21465;52.278;20.962;2023-08-30T04:31:03;14.68;;;13.55;;
35366;SDS011;21465;52.278;20.962;2023-08-30T04:33:29;15.25;;;14.00;;
35366;SDS011;21465;52.278;20.962;2023-08-30T04:35:55;15.23;;;14.02;;
35366;SDS011;21465;52.278;20.962;2023-08-30T04:38:21;14.60;;;13.27;;
35366;SDS011;21465;52.278;20.962;2023-08-30T04:40:47;14.50;;;13.30;;
35366;SDS011;21465;52.278;20.962;2023-08-30T04:43:14;13.27;;;12.27;;
35366;SDS011;21465;52.278;20.962;2023-08-30T04:45:40;14.25;;;13.05;;
35366;SDS011;21465;52.278;20.962;2023-08-30T04:48:05;14.27;;;13.07;;
35366;SDS011;21465;52.278;20.962;2023-08-30T04:50:31;13.13;;;12.02;;
35366;SDS011;21465;52.278;20.962;2023-08-30T04:52:57;15.02;;;13.88;;
35366;SDS011;21465;52.278;20.962;2023-08-30T04:55:24;13.95;;;12.88;;
35366;SDS011;21465;52.278;20.962;2023-08-30T04:57:56;14.38;;;13.18;;
35366;SDS011;21465;52.278;20.962;2023-08-30T05:00:21;13.80;;;12.70;;
35366;SDS011;21465;52.278;20.962;2023-08-30T05:02:47;13.30;;;12.27;;
35366;SDS011;21465;52.278;20.962;2023-08-30T05:05:14;14.65;;;13.43;;
35366;SDS011;21465;52.278;20.962;2023-08-30T05:07:39;14.02;;;12.77;;
35366;SDS011;21465;52.278;20.962;2023-08-30T05:10:05;14.10;;;12.90;;
35366;SDS011;21465;52.278;20.962;2023-08-30T05:12:35;12.32;;;11.43;;
35366;SDS011;21465;52.278;20.962;2023-08-30T05:15:01;11.95;;;11.05;;
35366;SDS011;21465;52.278;20.962;2023-08-30T05:17:26;12.98;;;11.95;;
35366;SDS011;21465;52.278;20.962;2023-08-30T05:19:54;12.88;;;11.88;;
35366;SDS011;21465;52.278;20.962;2023-08-30T05:22:20;12.55;;;11.55;;
35366;SDS011;21465;52.278;20.962;2023-08-30T05:24:45;12.40;;;11.40;;
35366;SDS011;21465;52.278;20.962;2023-08-30T05:27:14;12.52;;;11.52;;
35366;SDS011;21465;52.278;20.962;2023-08-30T05:29:40;12.70;;;11.75;;
35366;SDS011;21465;52.278;20.962;2023-08-30T05:32:08;12.38;;;11.38;;
35366;SDS011;21465;52.278;20.962;2023-08-30T05:34:34;11.13;;;10.23;;
35366;SDS011;21465;52.278;20.962;2023-08-30T05:37:00;11.70;;;10.70;;
35366;SDS011;21465;52.278;20.962;2023-08-30T05:39:25;10.82;;;9.77;;
35366;SDS011;21465;52.278;20.962;2023-08-30T05:41:53;11.95;;;11.05;;
35366;SDS011;21465;52.278;20.962;2023-08-30T05:44:19;11.32;;;10.50;;
35366;SDS011;21465;52.278;20.962;2023-08-30T05:46:45;11.65;;;10.85;;
35366;SDS011;21465;52.278;20.962;2023-08-30T05:49:11;11.82;;;10.73;;
35366;SDS011;21465;52.278;20.962;2023-08-30T05:51:37;10.80;;;9.98;;
35366;SDS011;21465;52.278;20.962;2023-08-30T05:54:02;11.35;;;10.45;;
35366;SDS011;21465;52.278;20.962;2023-08-30T05:56:28;11.70;;;10.70;;
35366;SDS011;21465;52.278;20.962;2023-08-30T05:58:54;12.35;;;11.27;;
35366;SDS011;21465;52.278;20.962;2023-08-30T06:01:20;11.73;;;10.73;;
35366;SDS011;21465;52.278;20.962;2023-08-30T06:03:45;11.43;;;10.50;;
35366;SDS011;21465;52.278;20.962;2023-08-30T06:06:12;11.27;;;10.38;;
35366;SDS011;21465;52.278;20.962;2023-08-30T06:08:38;11.00;;;10.10;;
35366;SDS011;21465;52.278;20.962;2023-08-30T06:11:04;11.57;;;10.68;;
35366;SDS011;21465;52.278;20.962;2023-08-30T06:13:29;11.40;;;10.48;;
35366;SDS011;21465;52.278;20.962;2023-08-30T06:15:55;11.73;;;10.82;;
35366;SDS011;21465;52.278;20.962;2023-08-30T06:18:21;13.82;;;12.65;;
35366;SDS011;21465;52.278;20.962;2023-08-30T06:20:47;13.32;;;12.23;;
35366;SDS011;21465;52.278;20.962;2023-08-30T06:23:13;15.75;;;14.23;;
35366;SDS011;21465;52.278;20.962;2023-08-30T06:25:40;14.35;;;13.05;;
35366;SDS011;21465;52.278;20.962;2023-08-30T06:28:08;13.73;;;12.63;;
35366;SDS011;21465;52.278;20.962;2023-08-30T06:30:34;14.27;;;12.97;;
35366;SDS011;21465;52.278;20.962;2023-08-30T06:33:00;13.38;;;12.27;;
35366;SDS011;21465;52.278;20.962;2023-08-30T06:35:26;13.38;;;12.27;;
35366;SDS011;21465;52.278;20.962;2023-08-30T06:37:51;14.45;;;13.25;;
35366;SDS011;21465;52.278;20.962;2023-08-30T06:40:17;13.55;;;12.43;;
35366;SDS011;21465;52.278;20.962;2023-08-30T06:42:43;13.57;;;12.57;;
35366;SDS011;21465;52.278;20.962;2023-08-30T06:45:09;14.65;;;13.40;;
35366;SDS011;21465;52.278;20.962;2023-08-30T06:47:36;13.05;;;12.05;;
35366;SDS011;21465;52.278;20.962;2023-08-30T06:50:02;12.73;;;11.73;;
35366;SDS011;21465;52.278;20.962;2023-08-30T06:52:29;13.77;;;12.68;;
35366;SDS011;21465;52.278;20.962;2023-08-30T06:54:55;13.55;;;12.45;;
35366;SDS011;21465;52.278;20.962;2023-08-30T06:57:20;13.45;;;12.25;;
35366;SDS011;21465;52.278;20.962;2023-08-30T06:59:50;14.65;;;13.48;;
35366;SDS011;21465;52.278;20.962;2023-08-30T07:02:16;13.40;;;12.30;;
35366;SDS011;21465;52.278;20.962;2023-08-30T07:04:41;13.57;;;12.57;;
35366;SDS011;21465;52.278;20.962;2023-08-30T07:07:11;13.43;;;12.40;;
35366;SDS011;21465;52.278;20.962;2023-08-30T07:09:38;13.48;;;12.38;;
35366;SDS011;21465;52.278;20.962;2023-08-30T07:12:07;13.85;;;12.75;;
35366;SDS011;21465;52.278;20.962;2023-08-30T07:14:33;14.43;;;13.23;;
35366;SDS011;21465;52.278;20.962;2023-08-30T07:16:59;16.23;;;14.82;;
35366;SDS011;21465;52.278;20.962;2023-08-30T07:19:28;14.15;;;12.93;;
35366;SDS011;21465;52.278;20.962;2023-08-30T07:21:53;16.08;;;14.57;;
35366;SDS011;21465;52.278;20.962;2023-08-30T07:24:19;16.80;;;15.40;;
35366;SDS011;21465;52.278;20.962;2023-08-30T07:26:48;16.30;;;15.00;;
35366;SDS011;21465;52.278;20.962;2023-08-30T07:29:14;14.85;;;13.65;;
35366;SDS011;21465;52.278;20.962;2023-08-30T07:31:40;17.33;;;15.82;;
35366;SDS011;21465;52.278;20.962;2023-08-30T07:34:06;16.63;;;15.23;;
35366;SDS011;21465;52.278;20.962;2023-08-30T07:36:33;16.25;;;14.85;;
35366;SDS011;21465;52.278;20.962;2023-08-30T07:38:59;14.40;;;13.25;;
35366;SDS011;21465;52.278;20.962;2023-08-30T07:41:24;15.70;;;14.50;;
35366;SDS011;21465;52.278;20.962;2023-08-30T07:43:52;17.45;;;15.93;;
35366;SDS011;21465;52.278;20.962;2023-08-30T07:46:17;16.63;;;15.23;;
35366;SDS011;21465;52.278;20.962;2023-08-30T07:48:43;17.98;;;16.27;;
35366;SDS011;21465;52.278;20.962;2023-08-30T07:51:09;17.80;;;16.10;;
35366;SDS011;21465;52.278;20.962;2023-08-30T07:53:35;19.05;;;17.35;;
35366;SDS011;21465;52.278;20.962;2023-08-30T07:56:01;21.20;;;19.20;;
35366;SDS011;21465;52.278;20.962;2023-08-30T07:58:27;21.00;;;18.95;;
35366;SDS011;21465;52.278;20.962;2023-08-30T08:00:53;22.65;;;20.45;;
35366;SDS011;21465;52.278;20.962;2023-08-30T08:03:22;25.33;;;22.77;;
35366;SDS011;21465;52.278;20.962;2023-08-30T08:05:47;31.45;;;26.08;;
35366;SDS011;21465;52.278;20.962;2023-08-30T08:08:13;34.40;;;27.17;;
35366;SDS011;21465;52.278;20.962;2023-08-30T08:10:40;30.67;;;26.38;;
35366;SDS011;21465;52.278;20.962;2023-08-30T08:13:07;31.58;;;25.83;;
35366;SDS011;21465;52.278;20.962;2023-08-30T08:15:35;27.90;;;24.98;;
35366;SDS011;21465;52.278;20.962;2023-08-30T08:18:01;32.20;;;26.05;;
35366;SDS011;21465;52.278;20.962;2023-08-30T08:20:39;31.80;;;28.13;;
35366;SDS011;21465;52.278;20.962;2023-08-30T08:23:05;27.77;;;24.90;;
35366;SDS011;21465;52.278;20.962;2023-08-30T08:25:31;24.38;;;22.02;;
35366;SDS011;21465;52.278;20.962;2023-08-30T08:27:57;29.35;;;24.88;;
35366;SDS011;21465;52.278;20.962;2023-08-30T08:30:22;25.75;;;21.55;;
35366;SDS011;21465;52.278;20.962;2023-08-30T08:32:48;23.20;;;20.65;;
35366;SDS011;21465;52.278;20.962;2023-08-30T08:35:14;28.42;;;24.85;;
35366;SDS011;21465;52.278;20.962;2023-08-30T08:37:40;29.73;;;23.98;;
35366;SDS011;21465;52.278;20.962;2023-08-30T08:40:06;20.30;;;18.35;;
35366;SDS011;21465;52.278;20.962;2023-08-30T08:42:34;18.35;;;16.65;;
35366;SDS011;21465;52.278;20.962;2023-08-30T08:45:02;18.45;;;16.30;;
35366;SDS011;21465;52.278;20.962;2023-08-30T08:47:29;18.27;;;16.38;;
35366;SDS011;21465;52.278;20.962;2023-08-30T08:49:55;18.13;;;16.33;;
35366;SDS011;21465;52.278;20.962;2023-08-30T08:52:24;16.20;;;14.63;;
35366;SDS011;21465;52.278;20.962;2023-08-30T08:54:52;18.00;;;16.27;;
35366;SDS011;21465;52.278;20.962;2023-08-30T08:57:21;17.85;;;15.95;;
35366;SDS011;21465;52.278;20.962;2023-08-30T08:59:47;21.67;;;17.90;;
35366;SDS011;21465;52.278;20.962;2023-08-30T09:02:13;18.27;;;15.48;;
35366;SDS011;21465;52.278;20.962;2023-08-30T09:04:45;16.48;;;14.77;;
35366;SDS011;21465;52.278;20.962;2023-08-30T09:07:11;15.20;;;13.70;;
35366;SDS011;21465;52.278;20.962;2023-08-30T09:09:56;16.73;;;15.07;;
35366;SDS011;21465;52.278;20.962;2023-08-30T09:12:48;13.93;;;12.50;;
35366;SDS011;21465;52.278;20.962;2023-08-30T09:15:17;13.23;;;12.00;;
35366;SDS011;21465;52.278;20.962;2023-08-30T09:17:50;14.45;;;12.95;;
35366;SDS011;21465;52.278;20.962;2023-08-30T09:21:04;11.90;;;10.85;;
35366;SDS011;21465;52.278;20.962;2023-08-30T09:23:34;11.32;;;10.23;;
35366;SDS011;21465;52.278;20.962;2023-08-30T09:26:10;8.77;;;8.07;;
35366;SDS011;21465;52.278;20.962;2023-08-30T09:28:42;9.23;;;8.30;;
35366;SDS011;21465;52.278;20.962;2023-08-30T09:31:16;8.10;;;7.43;;
35366;SDS011;21465;52.278;20.962;2023-08-30T09:33:46;8.32;;;7.60;;
35366;SDS011;21465;52.278;20.962;2023-08-30T09:36:44;7.85;;;7.18;;
35366;SDS011;21465;52.278;20.962;2023-08-30T09:39:13;7.40;;;6.80;;
35366;SDS011;21465;52.278;20.962;2023-08-30T09:41:43;6.22;;;5.78;;
35366;SDS011;21465;52.278;20.962;2023-08-30T09:44:17;6.25;;;5.75;;
35366;SDS011;21465;52.278;20.962;2023-08-30T09:46:50;5.90;;;5.50;;
35366;SDS011;21465;52.278;20.962;2023-08-30T09:49:26;6.97;;;6.43;;
35366;SDS011;21465;52.278;20.962;2023-08-30T09:52:05;7.25;;;6.65;;
35366;SDS011;21465;52.278;20.962;2023-08-30T09:54:38;6.25;;;5.85;;
35366;SDS011;21465;52.278;20.962;2023-08-30T09:57:09;7.68;;;7.07;;
35366;SDS011;21465;52.278;20.962;2023-08-30T09:59:45;9.18;;;8.27;;
35366;SDS011;21465;52.278;20.962;2023-08-30T10:02:13;9.25;;;8.50;;
35366;SDS011;21465;52.278;20.962;2023-08-30T10:04:42;9.02;;;8.32;;
35366;SDS011;21465;52.278;20.962;2023-08-30T10:07:09;9.10;;;8.38;;
35366;SDS011;21465;52.278;20.962;2023-08-30T10:09:37;8.98;;;8.18;;
35366;SDS011;21465;52.278;20.962;2023-08-30T10:12:03;8.70;;;8.02;;
35366;SDS011;21465;52.278;20.962;2023-08-30T10:14:29;9.73;;;8.93;;
35366;SDS011;21465;52.278;20.962;2023-08-30T10:17:01;8.90;;;8.10;;
35366;SDS011;21465;52.278;20.962;2023-08-30T10:19:35;9.35;;;8.55;;
35366;SDS011;21465;52.278;20.962;2023-08-30T10:22:09;8.57;;;7.78;;
35366;SDS011;21465;52.278;20.962;2023-08-30T10:24:41;11.15;;;9.68;;
35366;SDS011;21465;52.278;20.962;2023-08-30T10:27:12;9.80;;;9.00;;
35366;SDS011;21465;52.278;20.962;2023-08-30T10:29:47;9.63;;;8.82;;
35366;SDS011;21465;52.278;20.962;2023-08-30T10:32:20;7.85;;;7.15;;
35366;SDS011;21465;52.278;20.962;2023-08-30T10:34:50;8.18;;;7.47;;
35366;SDS011;21465;52.278;20.962;2023-08-30T10:37:21;8.65;;;7.95;;
35366;SDS011;21465;52.278;20.962;2023-08-30T10:39:50;7.65;;;7.05;;
35366;SDS011;21465;52.278;20.962;2023-08-30T10:42:21;8.82;;;8.02;;
35366;SDS011;21465;52.278;20.962;2023-08-30T10:44:50;8.18;;;7.47;;
35366;SDS011;21465;52.278;20.962;2023-08-30T10:47:25;9.45;;;8.55;;
35366;SDS011;21465;52.278;20.962;2023-08-30T10:50:00;7.03;;;6.43;;
35366;SDS011;21465;52.278;20.962;2023-08-30T10:52:29;7.55;;;6.85;;
35366;SDS011;21465;52.278;20.962;2023-08-30T10:58:24;5.90;;;5.32;;
35366;SDS011;21465;52.278;20.962;2023-08-30T11:01:02;5.05;;;4.75;;
35366;SDS011;21465;52.278;20.962;2023-08-30T11:03:44;6.85;;;6.35;;
35366;SDS011;21465;52.278;20.962;2023-08-30T11:09:01;4.97;;;4.68;;
35366;SDS011;21465;52.278;20.962;2023-08-30T11:11:36;4.20;;;3.90;;
35366;SDS011;21465;52.278;20.962;2023-08-30T11:14:08;4.30;;;4.00;;
35366;SDS011;21465;52.278;20.962;2023-08-30T11:16:35;3.40;;;3.20;;
35366;SDS011;21465;52.278;20.962;2023-08-30T11:21:30;4.07;;;3.78;;
35366;SDS011;21465;52.278;20.962;2023-08-30T11:24:06;4.25;;;3.95;;
35366;SDS011;21465;52.278;20.962;2023-08-30T11:27:18;3.45;;;3.25;;
35366;SDS011;21465;52.278;20.962;2023-08-30T11:29:45;3.40;;;3.20;;
35366;SDS011;21465;52.278;20.962;2023-08-30T11:32:14;3.42;;;3.13;;
35366;SDS011;21465;52.278;20.962;2023-08-30T11:34:55;3.83;;;3.53;;
35366;SDS011;21465;52.278;20.962;2023-08-30T11:37:22;3.75;;;3.45;;
35366;SDS011;21465;52.278;20.962;2023-08-30T11:42:39;4.20;;;3.90;;
35366;SDS011;21465;52.278;20.962;2023-08-30T11:45:09;3.45;;;3.25;;
35366;SDS011;21465;52.278;20.962;2023-08-30T11:47:35;3.55;;;3.35;;
35366;SDS011;21465;52.278;20.962;2023-08-30T11:50:04;4.18;;;3.88;;
35366;SDS011;21465;52.278;20.962;2023-08-30T11:52:34;4.00;;;3.70;;
35366;SDS011;21465;52.278;20.962;2023-08-30T11:55:10;3.33;;;3.13;;
35366;SDS011;21465;52.278;20.962;2023-08-30T11:57:44;3.72;;;3.05;;
35366;SDS011;21465;52.278;20.962;2023-08-30T12:00:12;3.75;;;3.20;;
35366;SDS011;21465;52.278;20.962;2023-08-30T12:02:39;3.03;;;2.83;;
35366;SDS011;21465;52.278;20.962;2023-08-30T12:05:32;3.03;;;2.83;;
35366;SDS011;21465;52.278;20.962;2023-08-30T12:08:03;3.80;;;3.50;;
35366;SDS011;21465;52.278;20.962;2023-08-30T12:10:47;2.78;;;2.58;;
35366;SDS011;21465;52.278;20.962;2023-08-30T12:16:43;3.08;;;2.88;;
35366;SDS011;21465;52.278;20.962;2023-08-30T12:19:08;2.63;;;2.53;;
35366;SDS011;21465;52.278;20.962;2023-08-30T12:21:43;2.08;;;1.98;;
35366;SDS011;21465;52.278;20.962;2023-08-30T12:24:21;2.28;;;2.10;;
35366;SDS011;21465;52.278;20.962;2023-08-30T12:26:50;2.83;;;2.20;;
35366;SDS011;21465;52.278;20.962;2023-08-30T12:29:16;2.47;;;2.28;;
35366;SDS011;21465;52.278;20.962;2023-08-30T12:31:42;2.58;;;2.42;;
35366;SDS011;21465;52.278;20.962;2023-08-30T12:34:21;3.08;;;2.38;;
35366;SDS011;21465;52.278;20.962;2023-08-30T12:36:50;2.85;;;2.65;;
35366;SDS011;21465;52.278;20.962;2023-08-30T12:39:15;2.22;;;2.13;;
35366;SDS011;21465;52.278;20.962;2023-08-30T12:41:45;2.17;;;2.08;;
35366;SDS011;21465;52.278;20.962;2023-08-30T12:44:11;2.45;;;2.28;;
35366;SDS011;21465;52.278;20.962;2023-08-30T12:46:51;2.92;;;2.40;;
35366;SDS011;21465;52.278;20.962;2023-08-30T12:49:17;2.10;;;2.00;;
35366;SDS011;21465;52.278;20.962;2023-08-30T12:51:46;2.25;;;2.15;;
35366;SDS011;21465;52.278;20.962;2023-08-30T12:54:11;3.30;;;3.10;;
35366;SDS011;21465;52.278;20.962;2023-08-30T12:56:37;2.60;;;2.40;;
35366;SDS011;21465;52.278;20.962;2023-08-30T12:59:05;3.28;;;3.08;;
35366;SDS011;21465;52.278;20.962;2023-08-30T13:01:30;3.25;;;3.05;;
35366;SDS011;21465;52.278;20.962;2023-08-30T13:03:56;3.28;;;3.08;;
35366;SDS011;21465;52.278;20.962;2023-08-30T13:06:22;3.30;;;3.10;;
35366;SDS011;21465;52.278;20.962;2023-08-30T13:08:48;3.15;;;2.95;;
35366;SDS011;21465;52.278;20.962;2023-08-30T13:11:14;3.78;;;3.58;;
35366;SDS011;21465;52.278;20.962;2023-08-30T13:13:39;4.15;;;3.85;;
35366;SDS011;21465;52.278;20.962;2023-08-30T13:16:05;4.35;;;4.05;;
35366;SDS011;21465;52.278;20.962;2023-08-30T13:18:31;4.43;;;4.13;;
35366;SDS011;21465;52.278;20.962;2023-08-30T13:20:57;5.00;;;4.60;;
35366;SDS011;21465;52.278;20.962;2023-08-30T13:23:25;5.30;;;4.90;;
35366;SDS011;21465;52.278;20.962;2023-08-30T13:25:55;4.88;;;4.47;;
35366;SDS011;21465;52.278;20.962;2023-08-30T13:28:20;4.13;;;3.83;;
35366;SDS011;21465;52.278;20.962;2023-08-30T13:30:46;4.28;;;3.97;;
35366;SDS011;21465;52.278;20.962;2023-08-30T13:33:12;4.75;;;4.38;;
35366;SDS011;21465;52.278;20.962;2023-08-30T13:35:40;4.07;;;3.80;;
35366;SDS011;21465;52.278;20.962;2023-08-30T13:38:06;4.47;;;4.10;;
35366;SDS011;21465;52.278;20.962;2023-08-30T13:40:35;4.07;;;3.80;;
35366;SDS011;21465;52.278;20.962;2023-08-30T13:43:00;3.88;;;3.67;;
35366;SDS011;21465;52.278;20.962;2023-08-30T13:45:26;4.30;;;4.10;;
35366;SDS011;21465;52.278;20.962;2023-08-30T13:47:52;3.92;;;3.63;;
35366;SDS011;21465;52.278;20.962;2023-08-30T13:50:20;3.92;;;3.72;;
35366;SDS011;21465;52.278;20.962;2023-08-30T13:52:49;3.72;;;3.53;;
35366;SDS011;21465;52.278;20.962;2023-08-30T13:55:15;3.80;;;3.50;;
35366;SDS011;21465;52.278;20.962;2023-08-30T13:57:42;3.55;;;3.25;;
35366;SDS011;21465;52.278;20.962;2023-08-30T14:00:08;3.42;;;3.22;;
35366;SDS011;21465;52.278;20.962;2023-08-30T14:02:35;3.10;;;2.90;;
35366;SDS011;21465;52.278;20.962;2023-08-30T14:05:02;3.70;;;3.50;;
35366;SDS011;21465;52.278;20.962;2023-08-30T14:07:27;3.65;;;3.45;;
35366;SDS011;21465;52.278;20.962;2023-08-30T14:09:53;2.42;;;2.33;;
35366;SDS011;21465;52.278;20.962;2023-08-30T14:12:19;2.70;;;2.50;;
35366;SDS011;21465;52.278;20.962;2023-08-30T14:14:45;3.05;;;2.85;;
35366;SDS011;21465;52.278;20.962;2023-08-30T14:17:10;2.72;;;2.63;;
35366;SDS011;21465;52.278;20.962;2023-08-30T14:19:37;2.67;;;2.50;;
35366;SDS011;21465;52.278;20.962;2023-08-30T14:22:03;2.60;;;2.50;;
35366;SDS011;21465;52.278;20.962;2023-08-30T14:24:31;2.50;;;2.40;;
35366;SDS011;21465;52.278;20.962;2023-08-30T14:27:00;2.45;;;2.35;;
35366;SDS011;21465;52.278;20.962;2023-08-30T14:29:26;2.70;;;2.55;;
35366;SDS011;21465;52.278;20.962;2023-08-30T14:31:51;2.20;;;2.10;;
35366;SDS011;21465;52.278;20.962;2023-08-30T14:34:19;2.80;;;2.60;;
35366;SDS011;21465;52.278;20.962;2023-08-30T14:36:45;2.35;;;2.25;;
35366;SDS011;21465;52.278;20.962;2023-08-30T14:39:11;2.53;;;2.33;;
35366;SDS011;21465;52.278;20.962;2023-08-30T14:41:37;2.25;;;2.15;;
35366;SDS011;21465;52.278;20.962;2023-08-30T14:44:03;2.63;;;2.30;;
35366;SDS011;21465;52.278;20.962;2023-08-30T14:46:29;2.42;;;2.30;;
35366;SDS011;21465;52.278;20.962;2023-08-30T14:48:55;2.58;;;2.47;;